createdAt,value
2019-01-12T00:04:19.224Z,77.10
2019-01-12T00:09:10.130Z,76.70
2019-01-12T00:14:01.066Z,75.50
2019-01-12T00:18:52.753Z,76.10
2019-01-12T00:23:43.689Z,75.70
2019-01-12T00:28:34.607Z,76.10
2019-01-12T00:33:25.520Z,77.00
2019-01-12T00:38:16.419Z,76.70
2019-01-12T00:43:07.420Z,76.80
2019-01-12T00:47:59.085Z,75.60
2019-01-12T00:52:50.000Z,75.60
2019-01-12T00:57:40.975Z,75.10
2019-01-12T01:02:31.941Z,75.90
2019-01-12T01:07:22.848Z,75.60
2019-01-12T01:12:13.840Z,76.00
2019-01-12T01:17:04.763Z,76.40
2019-01-12T01:21:55.703Z,76.60
2019-01-12T01:26:46.678Z,76.80
2019-01-12T01:31:37.575Z,75.90
2019-01-12T01:36:28.509Z,74.80
2019-01-12T01:41:19.409Z,75.00
2019-01-12T01:46:10.306Z,75.40
2019-01-12T01:51:01.282Z,75.70
2019-01-12T01:55:52.182Z,76.20
2019-01-12T02:00:43.082Z,77.00
2019-01-12T02:05:34.034Z,76.80
2019-01-12T02:10:24.925Z,76.00
2019-01-12T02:15:15.817Z,74.90
2019-01-12T02:20:06.743Z,75.00
2019-01-12T02:25:00.008Z,75.20
2019-01-12T02:29:48.554Z,75.70
2019-01-12T02:34:40.202Z,76.40
2019-01-12T02:39:31.909Z,76.50
2019-01-12T02:44:22.812Z,76.50
2019-01-12T02:49:13.730Z,76.70
2019-01-12T02:54:04.648Z,75.30
2019-01-12T02:58:55.546Z,74.70
2019-01-12T03:03:46.447Z,75.00
2019-01-12T03:08:37.411Z,75.60
2019-01-12T03:13:28.329Z,75.80
2019-01-12T03:18:19.228Z,76.10
2019-01-12T03:23:10.131Z,76.30
2019-01-12T03:28:01.022Z,76.80
2019-01-12T03:32:52.686Z,74.60
2019-01-12T03:37:43.586Z,74.60
2019-01-12T03:42:34.558Z,74.80
2019-01-12T03:47:25.466Z,75.20
2019-01-12T03:52:16.362Z,75.70
2019-01-12T03:57:07.262Z,75.90
2019-01-12T04:01:58.171Z,76.20
2019-01-12T04:06:49.810Z,76.10
2019-01-12T04:11:41.451Z,74.90
2019-01-12T04:16:32.354Z,74.90
2019-01-12T04:21:23.991Z,75.20
2019-01-12T04:26:15.618Z,75.60
2019-01-12T04:31:06.538Z,75.50
2019-01-12T04:35:58.183Z,76.10
2019-01-12T04:40:49.826Z,76.30
2019-01-12T04:45:41.518Z,76.70
2019-01-12T04:50:32.423Z,76.70
2019-01-12T04:55:23.331Z,75.40
2019-01-12T05:00:14.231Z,74.70
2019-01-12T05:05:05.186Z,74.90
2019-01-12T05:09:56.101Z,75.30
2019-01-12T05:14:47.030Z,75.70
2019-01-12T05:19:37.932Z,76.00
2019-01-12T05:24:28.841Z,76.30
2019-01-12T05:29:19.801Z,76.60
2019-01-12T05:34:10.706Z,75.90
2019-01-12T05:39:01.618Z,74.70
2019-01-12T05:43:52.527Z,74.70
2019-01-12T05:48:43.442Z,75.10
2019-01-12T05:53:34.382Z,75.50
2019-01-12T05:58:25.274Z,75.80
2019-01-12T06:03:16.178Z,76.10
2019-01-12T06:08:07.129Z,76.20
2019-01-12T06:12:58.026Z,76.30
2019-01-12T06:17:48.942Z,75.00
2019-01-12T06:22:39.895Z,74.70
2019-01-12T06:27:30.790Z,75.00
2019-01-12T06:32:21.695Z,75.30
2019-01-12T06:37:12.613Z,75.70
2019-01-12T06:42:03.565Z,76.00
2019-01-12T06:46:54.478Z,76.20
2019-01-12T06:51:45.408Z,76.60
2019-01-12T06:56:36.314Z,75.60
2019-01-12T07:01:27.209Z,74.70
2019-01-12T07:06:18.170Z,74.80
2019-01-12T07:11:09.069Z,75.20
2019-01-12T07:15:59.999Z,75.50
2019-01-12T07:20:50.903Z,75.70
2019-01-12T07:25:42.658Z,76.20
2019-01-12T07:30:33.564Z,76.20
2019-01-12T07:35:24.466Z,76.10
2019-01-12T07:40:15.406Z,74.80
2019-01-12T07:45:06.311Z,74.70
2019-01-12T07:49:57.255Z,75.00
2019-01-12T07:54:48.164Z,75.50
2019-01-12T07:59:39.094Z,75.80
2019-01-12T08:04:30.000Z,76.00
2019-01-12T08:09:20.954Z,76.30
2019-01-12T08:14:12.599Z,75.40
2019-01-12T08:19:04.298Z,74.80
2019-01-12T08:23:56.025Z,75.00
2019-01-12T08:28:46.973Z,75.00
2019-01-12T08:33:37.973Z,75.30
2019-01-12T08:38:28.914Z,75.80
2019-01-12T08:43:20.593Z,76.40
2019-01-12T08:48:11.511Z,76.30
2019-01-12T08:53:02.402Z,76.80
2019-01-12T08:57:54.051Z,75.20
2019-01-12T09:02:45.687Z,75.20
2019-01-12T09:07:36.657Z,75.20
2019-01-12T09:12:27.554Z,75.80
2019-01-12T09:17:18.543Z,76.20
2019-01-12T09:22:09.546Z,76.60
2019-01-12T09:27:00.450Z,76.80
2019-01-12T09:31:51.497Z,77.20
2019-01-12T09:36:43.142Z,76.00
2019-01-12T09:41:34.050Z,76.00
2019-01-12T09:46:25.697Z,76.30
2019-01-12T09:51:16.662Z,76.30
2019-01-12T09:56:07.563Z,76.60
2019-01-12T10:00:58.507Z,77.00
2019-01-12T10:05:49.426Z,77.30
2019-01-12T10:10:40.331Z,77.60
2019-01-12T10:15:31.257Z,77.80
2019-01-12T10:20:22.150Z,76.60
2019-01-12T10:25:13.061Z,76.00
2019-01-12T10:30:04.011Z,76.40
2019-01-12T10:34:54.913Z,76.80
2019-01-12T10:39:45.889Z,77.10
2019-01-12T10:44:37.530Z,77.60
2019-01-12T10:49:29.241Z,78.00
2019-01-12T10:54:20.284Z,77.90
2019-01-12T10:59:12.669Z,76.00
2019-01-12T11:04:03.623Z,76.00
2019-01-12T11:08:54.599Z,76.20
2019-01-12T11:13:45.623Z,76.60
2019-01-12T11:18:36.535Z,76.90
2019-01-12T11:23:27.516Z,77.20
2019-01-12T11:28:18.431Z,77.50
2019-01-12T11:33:09.339Z,77.90
2019-01-12T11:38:00.253Z,76.50
2019-01-12T11:42:51.144Z,75.90
2019-01-12T11:47:42.102Z,76.10
2019-01-12T11:52:33.010Z,76.50
2019-01-12T11:57:23.934Z,77.50
2019-01-12T12:02:14.831Z,77.10
2019-01-12T12:07:05.774Z,77.30
2019-01-12T12:11:56.681Z,77.70
2019-01-12T12:16:47.614Z,76.50
2019-01-12T12:21:38.520Z,75.90
2019-01-12T12:26:29.445Z,76.10
2019-01-12T12:31:20.397Z,76.30
2019-01-12T12:36:12.038Z,77.50
2019-01-12T12:41:03.680Z,77.20
2019-01-12T12:45:55.374Z,77.20
2019-01-12T12:50:46.282Z,77.20
2019-01-12T12:55:37.177Z,75.80
2019-01-12T13:00:28.122Z,75.40
2019-01-12T13:05:19.022Z,75.70
2019-01-12T13:10:12.918Z,76.00
2019-01-12T13:15:03.818Z,76.30
2019-01-12T13:19:54.782Z,76.50
2019-01-12T13:24:45.683Z,76.70
2019-01-12T13:29:36.578Z,76.60
2019-01-12T13:34:27.534Z,75.40
2019-01-12T13:39:18.439Z,75.30
2019-01-12T13:44:09.378Z,75.50
2019-01-12T13:49:00.277Z,75.80
2019-01-12T13:53:51.186Z,76.10
2019-01-12T13:58:42.090Z,76.30
2019-01-12T14:03:33.042Z,76.60
2019-01-12T14:08:23.938Z,76.20
2019-01-12T14:13:14.895Z,75.10
2019-01-12T14:18:05.791Z,75.30
2019-01-12T14:22:56.682Z,75.60
2019-01-12T14:27:54.427Z,76.00
2019-01-12T14:32:38.504Z,76.30
2019-01-12T14:37:30.150Z,77.20
2019-01-12T14:42:21.058Z,77.20
2019-01-12T14:47:12.783Z,75.30
2019-01-12T14:52:04.496Z,75.60
2019-01-12T14:56:55.403Z,75.60
2019-01-12T15:01:46.327Z,76.00
2019-01-12T15:06:37.295Z,76.40
2019-01-12T15:11:28.922Z,76.90
2019-01-12T15:16:20.620Z,77.20
2019-01-12T15:21:11.521Z,77.20
2019-01-12T15:26:02.450Z,75.90
2019-01-12T15:30:53.349Z,75.40
2019-01-12T15:35:44.290Z,75.80
2019-01-12T15:40:35.203Z,76.20
2019-01-12T15:45:26.134Z,76.50
2019-01-12T15:50:17.834Z,76.80
2019-01-12T15:55:08.809Z,77.10
2019-01-12T15:59:59.710Z,77.30
2019-01-12T16:04:50.634Z,75.90
2019-01-12T16:09:41.548Z,75.70
2019-01-12T16:14:32.451Z,76.00
2019-01-12T16:19:23.347Z,76.40
2019-01-12T16:24:14.251Z,76.80
2019-01-12T16:29:05.158Z,77.00
2019-01-12T16:33:56.817Z,77.60
2019-01-12T16:38:47.783Z,77.60
2019-01-12T16:43:38.690Z,76.30
2019-01-12T16:48:29.602Z,75.80
2019-01-12T16:53:20.547Z,76.10
2019-01-12T16:58:11.450Z,76.50
2019-01-12T17:03:02.357Z,76.90
2019-01-12T17:07:53.250Z,77.90
2019-01-12T17:12:44.145Z,77.50
2019-01-12T17:17:35.786Z,76.50
2019-01-12T17:22:27.666Z,76.10
2019-01-12T17:27:18.573Z,76.10
2019-01-12T17:32:09.527Z,76.40
2019-01-12T17:37:01.175Z,77.20
2019-01-12T17:41:52.239Z,77.20
2019-01-12T17:46:43.200Z,77.50
2019-01-12T17:51:34.262Z,77.70
2019-01-12T17:56:25.910Z,76.10
2019-01-12T18:01:17.194Z,76.10
2019-01-12T18:06:08.090Z,75.60
2019-01-12T18:10:58.989Z,76.10
2019-01-12T18:15:49.938Z,76.70
2019-01-12T18:20:40.850Z,77.10
2019-01-12T18:25:31.742Z,77.20
2019-01-12T18:30:22.690Z,77.40
2019-01-12T18:35:13.612Z,77.80
2019-01-12T18:40:04.550Z,76.40
2019-01-12T18:44:55.556Z,76.10
2019-01-12T18:49:46.454Z,76.50
2019-01-12T18:54:37.355Z,76.90
2019-01-12T18:59:28.274Z,77.20
2019-01-12T19:04:19.185Z,77.60
2019-01-12T19:09:10.134Z,77.80
2019-01-12T19:14:01.029Z,77.90
2019-01-12T19:18:51.991Z,76.40
2019-01-12T19:23:42.914Z,76.60
2019-01-12T19:28:33.935Z,76.50
2019-01-12T19:33:24.852Z,76.90
2019-01-12T19:38:15.758Z,77.10
2019-01-12T19:43:06.654Z,77.50
2019-01-12T19:47:57.594Z,77.80
2019-01-12T19:52:48.513Z,77.70
2019-01-12T19:57:39.420Z,76.40
2019-01-12T20:02:30.318Z,76.20
2019-01-12T20:07:21.213Z,76.40
2019-01-12T20:12:12.911Z,77.10
2019-01-12T20:17:04.948Z,77.10
2019-01-12T20:21:56.357Z,77.30
2019-01-12T20:26:47.208Z,78.10
2019-01-12T20:31:39.989Z,77.50
2019-01-12T20:36:44.746Z,76.30
2019-01-12T20:41:38.370Z,76.60
2019-01-12T20:46:30.243Z,76.60
2019-01-12T20:51:24.211Z,77.00
2019-01-12T20:56:28.995Z,77.20
2019-01-12T21:01:28.762Z,78.00
2019-01-12T21:06:24.558Z,77.80
2019-01-12T21:11:16.203Z,76.10
2019-01-12T21:16:08.831Z,76.10
2019-01-12T21:20:59.729Z,76.10
2019-01-12T21:25:57.594Z,76.60
2019-01-12T21:30:48.505Z,77.10
2019-01-12T21:35:39.401Z,77.40
2019-01-12T21:40:31.038Z,77.90
2019-01-12T21:45:22.697Z,76.90
2019-01-12T21:50:13.598Z,76.90
2019-01-12T21:55:05.234Z,76.20
2019-01-12T21:59:56.151Z,76.20
2019-01-12T22:04:47.126Z,76.50
2019-01-12T22:09:38.174Z,77.00
2019-01-12T22:14:29.882Z,77.50
2019-01-12T22:19:20.777Z,77.50
2019-01-12T22:24:11.722Z,77.90
2019-01-12T22:29:02.614Z,76.80
2019-01-12T22:33:53.519Z,76.00
2019-01-12T22:38:44.483Z,76.30
2019-01-12T22:43:35.387Z,76.70
2019-01-12T22:48:26.322Z,77.00
2019-01-12T22:53:17.227Z,77.30
2019-01-12T22:58:08.152Z,77.50
2019-01-12T23:02:59.069Z,77.70
2019-01-12T23:07:49.981Z,76.30
2019-01-12T23:12:40.942Z,75.80
2019-01-12T23:17:32.590Z,76.60
2019-01-12T23:22:24.273Z,76.90
2019-01-12T23:27:15.198Z,76.90
2019-01-12T23:32:06.113Z,77.10
2019-01-12T23:36:57.025Z,77.40
2019-01-12T23:41:47.962Z,77.50
2019-01-12T23:46:38.981Z,76.20
2019-01-12T23:51:29.899Z,75.90
2019-01-12T23:56:20.801Z,76.20
